createdAt,value
2018-07-16T00:00:03.713Z,3.23
2018-07-16T00:02:32.146Z,3.87
2018-07-16T00:05:00.465Z,4.10
2018-07-16T00:07:29.112Z,4.40
2018-07-16T00:09:57.416Z,4.33
2018-07-16T00:12:25.732Z,4.37
2018-07-16T00:14:54.049Z,4.43
2018-07-16T00:17:22.622Z,3.80
2018-07-16T00:19:50.940Z,3.77
2018-07-16T00:22:19.289Z,4.37
2018-07-16T00:24:47.549Z,3.57
2018-07-16T00:27:16.139Z,3.70
2018-07-16T00:29:45.498Z,4.07
2018-07-16T00:32:13.861Z,5.60
2018-07-16T00:34:42.124Z,4.50
2018-07-16T00:37:10.490Z,4.70
2018-07-16T00:39:38.767Z,3.90
2018-07-16T00:42:07.121Z,4.30
2018-07-16T00:44:35.417Z,3.90
2018-07-16T00:47:03.701Z,3.40
2018-07-16T00:49:32.005Z,4.03
2018-07-16T00:52:00.273Z,4.77
2018-07-16T00:54:28.572Z,4.30
2018-07-16T00:56:56.897Z,5.00
2018-07-16T00:59:25.215Z,4.00
2018-07-16T01:01:53.674Z,4.63
2018-07-16T01:04:21.994Z,4.50
2018-07-16T01:06:51.393Z,4.33
2018-07-16T01:09:19.722Z,4.90
2018-07-16T01:11:48.009Z,5.00
2018-07-16T01:14:16.337Z,4.90
2018-07-16T01:16:44.613Z,5.17
2018-07-16T01:19:12.921Z,4.10
2018-07-16T01:21:41.198Z,4.90
2018-07-16T01:24:09.505Z,4.43
2018-07-16T01:26:37.801Z,4.63
2018-07-16T01:29:06.257Z,4.50
2018-07-16T01:31:34.553Z,4.77
2018-07-16T01:34:02.925Z,4.60
2018-07-16T01:36:31.241Z,5.17
2018-07-16T01:38:59.545Z,4.93
2018-07-16T01:41:27.825Z,4.37
2018-07-16T01:43:56.094Z,5.30
2018-07-16T01:46:24.538Z,4.67
2018-07-16T01:48:52.849Z,5.03
2018-07-16T01:51:21.168Z,4.50
2018-07-16T01:53:49.449Z,4.37
2018-07-16T01:56:17.765Z,4.47
2018-07-16T01:58:46.185Z,4.80
2018-07-16T02:01:14.517Z,4.87
2018-07-16T02:03:42.781Z,4.70
2018-07-16T02:06:11.099Z,4.83
2018-07-16T02:08:39.362Z,5.07
2018-07-16T02:11:07.673Z,5.77
2018-07-16T02:13:35.949Z,4.73
2018-07-16T02:16:04.381Z,5.87
2018-07-16T02:18:32.645Z,5.40
2018-07-16T02:21:00.953Z,5.90
2018-07-16T02:23:29.228Z,5.50
2018-07-16T02:25:58.565Z,6.10
2018-07-16T02:28:26.829Z,5.47
2018-07-16T02:30:55.125Z,7.70
2018-07-16T02:33:23.413Z,7.87
2018-07-16T02:35:51.710Z,8.77
2018-07-16T02:38:20.010Z,10.03
2018-07-16T02:40:48.301Z,10.00
2018-07-16T02:43:16.683Z,9.93
2018-07-16T02:45:44.957Z,9.80
2018-07-16T02:48:13.249Z,9.60
2018-07-16T02:50:41.513Z,9.50
2018-07-16T02:53:09.833Z,9.40
2018-07-16T02:55:38.130Z,9.27
2018-07-16T02:58:06.762Z,9.00
2018-07-16T03:00:35.133Z,8.80
2018-07-16T03:03:03.437Z,8.70
2018-07-16T03:05:31.701Z,7.97
2018-07-16T03:08:00.030Z,9.53
2018-07-16T03:10:29.341Z,9.10
2018-07-16T03:12:57.649Z,8.17
2018-07-16T03:15:25.917Z,9.27
2018-07-16T03:17:54.279Z,8.60
2018-07-16T03:20:22.561Z,8.30
2018-07-16T03:22:50.891Z,8.60
2018-07-16T03:25:19.207Z,7.20
2018-07-16T03:27:47.473Z,7.07
2018-07-16T03:30:15.875Z,6.80
2018-07-16T03:32:45.000Z,6.97
2018-07-16T03:35:13.445Z,6.20
2018-07-16T03:37:42.768Z,6.57
2018-07-16T03:40:11.077Z,6.30
2018-07-16T03:42:39.349Z,5.90
2018-07-16T03:45:07.655Z,6.70
2018-07-16T03:47:36.961Z,6.00
2018-07-16T03:50:05.263Z,6.27
2018-07-16T03:52:33.717Z,5.53
2018-07-16T03:55:02.033Z,6.50
2018-07-16T03:57:30.305Z,5.20
2018-07-16T03:59:58.617Z,5.70
2018-07-16T04:02:26.885Z,6.50
2018-07-16T04:04:55.201Z,6.10
2018-07-16T04:07:23.488Z,5.47
2018-07-16T04:09:51.748Z,5.87
2018-07-16T04:12:20.140Z,6.00
2018-07-16T04:14:48.417Z,5.40
2018-07-16T04:17:16.713Z,6.57
2018-07-16T04:19:44.973Z,5.60
2018-07-16T04:22:13.268Z,6.00
2018-07-16T04:24:41.588Z,5.77
2018-07-16T04:27:09.905Z,6.40
2018-07-16T04:29:38.201Z,6.13
2018-07-16T04:32:06.493Z,5.63
2018-07-16T04:34:35.857Z,6.27
2018-07-16T04:37:04.141Z,7.13
2018-07-16T04:39:32.396Z,9.87
2018-07-16T04:42:00.833Z,8.40
2018-07-16T04:44:29.321Z,6.47
2018-07-16T04:46:57.609Z,9.83
2018-07-16T04:49:25.873Z,8.90
2018-07-16T04:51:54.169Z,10.17
2018-07-16T04:54:22.458Z,7.20
2018-07-16T04:56:50.753Z,6.80
2018-07-16T04:59:19.073Z,7.47
2018-07-16T05:01:47.393Z,6.87
2018-07-16T05:04:15.698Z,7.67
2018-07-16T05:06:43.969Z,7.80
2018-07-16T05:09:12.259Z,7.80
2018-07-16T05:11:40.529Z,7.67
2018-07-16T05:14:08.825Z,6.90
2018-07-16T05:16:37.105Z,7.53
2018-07-16T05:19:05.418Z,7.87
2018-07-16T05:21:33.786Z,7.90
2018-07-16T05:24:02.107Z,6.97
2018-07-16T05:26:30.362Z,7.40
2018-07-16T05:28:58.853Z,7.20
2018-07-16T05:31:27.177Z,8.00
2018-07-16T05:33:55.661Z,8.00
2018-07-16T05:36:24.107Z,7.60
2018-07-16T05:38:52.413Z,7.47
2018-07-16T05:41:20.677Z,7.60
2018-07-16T05:43:48.977Z,7.77
2018-07-16T05:46:17.313Z,6.87
2018-07-16T05:48:45.629Z,7.17
2018-07-16T05:51:13.920Z,7.53
2018-07-16T05:53:42.246Z,7.53
2018-07-16T05:56:10.586Z,6.73
2018-07-16T05:58:38.848Z,7.80
2018-07-16T06:01:07.261Z,8.87
2018-07-16T06:03:35.529Z,7.60
2018-07-16T06:06:03.817Z,7.63
2018-07-16T06:08:33.513Z,7.70
2018-07-16T06:11:01.805Z,7.67
2018-07-16T06:13:31.077Z,7.27
2018-07-16T06:15:59.364Z,7.00
2018-07-16T06:18:27.612Z,6.57
2018-07-16T06:20:55.893Z,6.60
2018-07-16T06:23:24.191Z,6.90
2018-07-16T06:25:52.463Z,6.70
2018-07-16T06:28:20.741Z,6.90
2018-07-16T06:30:49.043Z,6.50
2018-07-16T06:33:17.472Z,6.80
2018-07-16T06:35:45.761Z,6.83
2018-07-16T06:38:14.026Z,6.70
2018-07-16T06:40:42.586Z,6.67
2018-07-16T06:43:10.665Z,7.10
2018-07-16T06:45:38.933Z,5.87
2018-07-16T06:48:07.247Z,6.60
2018-07-16T06:50:35.522Z,6.10
2018-07-16T06:53:03.969Z,5.90
2018-07-16T06:55:32.234Z,5.80
2018-07-16T06:58:00.505Z,5.87
2018-07-16T07:00:28.980Z,6.50
2018-07-16T07:02:57.245Z,6.50
2018-07-16T07:08:57.329Z,6.17
2018-07-16T07:11:25.585Z,6.20
2018-07-16T07:13:53.885Z,7.00
2018-07-16T07:16:22.191Z,6.40
2018-07-16T07:18:50.465Z,6.30
2018-07-16T07:21:18.742Z,6.00
2018-07-16T07:23:47.139Z,6.00
2018-07-16T07:26:15.421Z,6.33
2018-07-16T07:28:43.679Z,6.10
2018-07-16T07:31:11.990Z,5.93
2018-07-16T07:33:40.269Z,6.07
2018-07-16T07:36:08.564Z,5.90
2018-07-16T07:38:36.829Z,5.43
2018-07-16T07:41:05.156Z,6.17
2018-07-16T07:43:33.413Z,6.30
2018-07-16T07:46:01.709Z,5.97
2018-07-16T07:48:29.971Z,5.80
2018-07-16T07:50:58.316Z,5.57
2018-07-16T07:53:26.630Z,5.33
2018-07-16T07:55:54.919Z,6.23
2018-07-16T07:58:23.177Z,4.70
2018-07-16T08:00:51.553Z,5.47
2018-07-16T08:03:19.875Z,4.73
2018-07-16T08:05:53.775Z,5.23
2018-07-16T08:08:22.060Z,4.30
2018-07-16T08:10:50.353Z,5.07
2018-07-16T08:13:18.685Z,5.60
2018-07-16T08:15:47.054Z,5.13
2018-07-16T08:18:15.389Z,5.37
2018-07-16T08:20:43.673Z,5.80
2018-07-16T08:23:11.969Z,4.73
2018-07-16T08:25:40.244Z,5.70
2018-07-16T08:28:08.649Z,5.27
2018-07-16T08:30:37.957Z,5.30
2018-07-16T08:33:07.332Z,5.30
2018-07-16T08:35:35.637Z,5.23
2018-07-16T08:38:04.101Z,5.60
2018-07-16T08:40:32.426Z,6.07
2018-07-16T08:43:00.754Z,5.37
2018-07-16T08:45:29.078Z,5.00
2018-07-16T08:47:57.371Z,5.83
2018-07-16T08:50:25.677Z,5.20
2018-07-16T08:52:54.064Z,5.67
2018-07-16T08:55:22.269Z,5.57
2018-07-16T08:57:51.290Z,5.50
2018-07-16T09:00:19.564Z,6.47
2018-07-16T09:02:47.901Z,6.17
2018-07-16T09:05:16.154Z,5.77
2018-07-16T09:07:44.417Z,6.33
2018-07-16T09:10:12.885Z,6.93
2018-07-16T09:12:41.173Z,5.20
2018-07-16T09:15:09.476Z,5.93
2018-07-16T09:17:37.749Z,6.07
2018-07-16T09:20:06.041Z,5.77
2018-07-16T09:22:34.308Z,6.43
2018-07-16T09:25:02.713Z,6.10
2018-07-16T09:27:31.986Z,6.07
2018-07-16T09:30:00.293Z,6.00
2018-07-16T09:32:29.569Z,5.77
2018-07-16T09:34:57.862Z,13.33
2018-07-16T09:37:26.157Z,5.80
2018-07-16T09:39:54.472Z,6.77
2018-07-16T09:42:22.750Z,5.67
2018-07-16T09:44:51.071Z,5.90
2018-07-16T09:47:19.422Z,6.07
2018-07-16T09:49:47.713Z,5.80
2018-07-16T09:52:15.985Z,6.27
2018-07-16T09:54:44.252Z,5.97
2018-07-16T09:57:12.560Z,5.43
2018-07-16T09:59:40.901Z,5.50
2018-07-16T10:02:15.224Z,6.07
2018-07-16T10:04:43.557Z,7.37
2018-07-16T10:07:12.201Z,5.90
2018-07-16T10:09:40.475Z,5.67
2018-07-16T10:12:09.127Z,7.30
2018-07-16T10:14:37.473Z,5.80
2018-07-16T10:17:06.041Z,5.87
2018-07-16T10:19:34.320Z,6.10
2018-07-16T10:22:02.609Z,6.33
2018-07-16T10:24:30.984Z,6.30
2018-07-16T10:26:59.270Z,6.07
2018-07-16T10:29:27.541Z,6.03
2018-07-16T10:31:55.857Z,5.90
2018-07-16T10:34:24.148Z,5.97
2018-07-16T10:36:53.501Z,6.30
2018-07-16T10:39:21.891Z,6.13
2018-07-16T10:41:50.170Z,6.70
2018-07-16T10:44:18.473Z,5.90
2018-07-16T10:46:46.730Z,5.83
2018-07-16T10:49:15.025Z,5.70
2018-07-16T10:51:43.325Z,6.20
2018-07-16T10:54:11.650Z,5.13
2018-07-16T10:56:39.969Z,6.53
2018-07-16T10:59:08.428Z,5.73
2018-07-16T11:01:36.737Z,6.10
2018-07-16T11:04:06.161Z,6.20
2018-07-16T11:06:34.509Z,6.30
2018-07-16T11:09:02.854Z,8.30
2018-07-16T11:11:31.125Z,7.30
2018-07-16T11:13:59.430Z,6.13
2018-07-16T11:16:27.698Z,7.00
2018-07-16T11:18:55.989Z,5.80
2018-07-16T11:21:24.289Z,5.57
2018-07-16T11:23:52.677Z,5.60
2018-07-16T11:26:20.945Z,5.87
2018-07-16T11:28:49.220Z,5.20
2018-07-16T11:31:17.489Z,5.70
2018-07-16T11:33:45.788Z,4.97
2018-07-16T11:36:14.052Z,5.03
2018-07-16T11:38:42.389Z,5.67
2018-07-16T11:41:10.661Z,4.70
2018-07-16T11:43:38.952Z,4.90
2018-07-16T11:46:08.276Z,4.13
2018-07-16T11:48:36.518Z,4.23
2018-07-16T11:51:04.844Z,4.90
2018-07-16T11:53:33.102Z,4.87
2018-07-16T11:56:01.410Z,4.00
2018-07-16T11:58:29.689Z,3.60
2018-07-16T12:00:57.992Z,4.40
2018-07-16T12:03:26.317Z,4.60
2018-07-16T12:05:54.606Z,4.57
2018-07-16T12:08:22.944Z,4.50
2018-07-16T12:10:52.309Z,4.73
2018-07-16T12:13:20.564Z,4.27
2018-07-16T12:15:48.852Z,4.97
2018-07-16T12:18:17.101Z,6.47
2018-07-16T12:20:45.390Z,5.13
2018-07-16T12:23:13.649Z,5.17
2018-07-16T12:25:41.949Z,6.07
2018-07-16T12:28:10.253Z,4.80
2018-07-16T12:30:38.473Z,5.27
2018-07-16T12:33:06.765Z,5.63
2018-07-16T12:35:35.122Z,5.60
2018-07-16T12:38:03.425Z,5.80
2018-07-16T12:40:31.669Z,5.90
2018-07-16T12:42:59.942Z,5.27
2018-07-16T12:45:28.212Z,6.17
2018-07-16T12:47:56.497Z,5.70
2018-07-16T12:50:24.742Z,6.20
2018-07-16T12:52:53.017Z,5.67
2018-07-16T12:55:21.325Z,5.63
2018-07-16T12:57:49.573Z,5.70
2018-07-16T13:00:17.891Z,5.83
2018-07-16T13:02:46.212Z,5.90
2018-07-16T13:05:14.469Z,6.20
2018-07-16T13:07:42.757Z,6.43
2018-07-16T13:10:11.013Z,5.13
2018-07-16T13:12:39.302Z,6.23
2018-07-16T13:15:07.565Z,5.70
2018-07-16T13:17:35.864Z,6.30
2018-07-16T13:20:04.154Z,6.53
2018-07-16T13:22:32.441Z,7.33
2018-07-16T13:25:00.741Z,6.50
2018-07-16T13:27:28.993Z,6.00
2018-07-16T13:29:57.439Z,6.60
2018-07-16T13:32:25.748Z,5.53
2018-07-16T13:34:54.093Z,7.10
2018-07-16T13:37:22.373Z,7.37
2018-07-16T13:39:50.650Z,6.97
2018-07-16T13:42:18.938Z,9.60
2018-07-16T13:44:47.238Z,15.87
2018-07-16T13:47:15.541Z,13.40
2018-07-16T13:49:43.825Z,6.30
2018-07-16T13:52:12.097Z,6.37
2018-07-16T13:54:40.387Z,6.20
2018-07-16T13:57:08.665Z,6.33
2018-07-16T13:59:37.226Z,7.90
2018-07-16T14:02:05.613Z,5.77
2018-07-16T14:04:33.861Z,7.87
2018-07-16T14:07:02.149Z,6.10
2018-07-16T14:09:30.449Z,5.53
2018-07-16T14:11:58.741Z,6.17
2018-07-16T14:14:27.413Z,14.73
2018-07-16T14:16:55.682Z,9.13
2018-07-16T14:19:23.992Z,10.10
2018-07-16T14:21:52.299Z,9.67
2018-07-16T14:24:20.654Z,11.10
2018-07-16T14:26:49.130Z,8.63
2018-07-16T14:29:17.413Z,10.00
2018-07-16T14:31:45.850Z,11.00
2018-07-16T14:34:14.145Z,9.67
2018-07-16T14:36:42.473Z,10.10
2018-07-16T14:39:10.778Z,10.40
2018-07-16T14:41:39.053Z,8.77
2018-07-16T14:44:07.433Z,10.10
2018-07-16T14:46:35.777Z,10.67
2018-07-16T14:49:04.069Z,13.30
2018-07-16T14:51:32.384Z,16.00
2018-07-16T14:54:00.645Z,10.60
2018-07-16T14:56:29.062Z,10.60
2018-07-16T14:58:57.393Z,11.40
2018-07-16T15:01:25.717Z,9.77
2018-07-16T15:03:53.992Z,9.67
2018-07-16T15:06:22.301Z,7.77
2018-07-16T15:08:50.601Z,6.63
2018-07-16T15:11:18.906Z,5.50
2018-07-16T15:13:47.219Z,6.20
2018-07-16T15:16:15.485Z,4.23
2018-07-16T15:18:43.798Z,4.60
2018-07-16T15:21:12.518Z,4.00
2018-07-16T15:23:40.428Z,5.37
2018-07-16T15:26:08.754Z,4.90
2018-07-16T15:28:37.029Z,4.40
2018-07-16T15:31:05.522Z,4.30
2018-07-16T15:33:33.837Z,4.57
2018-07-16T15:36:02.176Z,5.30
2018-07-16T15:38:30.528Z,4.40
2018-07-16T15:40:58.865Z,3.83
2018-07-16T15:43:27.151Z,4.47
2018-07-16T15:45:55.473Z,4.30
2018-07-16T15:48:23.777Z,5.10
2018-07-16T15:50:52.024Z,4.13
2018-07-16T15:53:20.274Z,5.03
2018-07-16T15:55:48.580Z,4.70
2018-07-16T15:58:16.931Z,4.20
2018-07-16T16:00:45.245Z,4.50
2018-07-16T16:03:13.530Z,4.80
2018-07-16T16:05:41.971Z,5.00
2018-07-16T16:08:10.269Z,4.20
2018-07-16T16:10:38.622Z,4.60
2018-07-16T16:13:07.008Z,4.40
2018-07-16T16:15:35.236Z,4.40
2018-07-16T16:18:05.156Z,3.90
2018-07-16T16:20:33.593Z,3.97
2018-07-16T16:23:01.932Z,4.00
2018-07-16T16:25:30.205Z,4.10
2018-07-16T16:27:58.508Z,3.97
2018-07-16T16:30:26.849Z,4.70
2018-07-16T16:32:55.127Z,4.77
2018-07-16T16:35:24.485Z,3.63
2018-07-16T16:37:52.817Z,3.53
2018-07-16T16:40:21.133Z,4.57
2018-07-16T16:42:49.461Z,4.20
2018-07-16T16:45:18.793Z,4.73
2018-07-16T16:47:47.081Z,4.37
2018-07-16T16:50:15.469Z,4.33
2018-07-16T16:52:43.797Z,4.33
2018-07-16T16:55:12.057Z,4.17
2018-07-16T16:57:41.216Z,4.00
2018-07-16T17:00:09.595Z,4.00
2018-07-16T17:02:37.789Z,4.47
2018-07-16T17:05:06.079Z,5.10
2018-07-16T17:07:34.498Z,4.20
2018-07-16T17:10:02.817Z,4.70
2018-07-16T17:12:31.085Z,4.70
2018-07-16T17:14:59.381Z,4.47
2018-07-16T17:17:27.653Z,4.10
2018-07-16T17:19:55.978Z,4.57
2018-07-16T17:22:24.242Z,4.10
2018-07-16T17:24:52.572Z,4.10
2018-07-16T17:27:20.829Z,4.87
2018-07-16T17:29:49.204Z,4.20
2018-07-16T17:32:17.497Z,4.77
2018-07-16T17:34:45.853Z,4.30
2018-07-16T17:37:14.331Z,5.93
2018-07-16T17:39:42.616Z,5.30
2018-07-16T17:42:10.882Z,5.60
2018-07-16T17:44:39.168Z,6.07
2018-07-16T17:47:07.500Z,5.87
2018-07-16T17:49:36.164Z,5.73
2018-07-16T17:52:04.403Z,5.47
2018-07-16T17:54:32.705Z,6.17
2018-07-16T17:57:01.002Z,5.70
2018-07-16T17:59:29.269Z,6.00
2018-07-16T18:01:57.625Z,6.90
2018-07-16T18:04:26.058Z,5.53
2018-07-16T18:06:54.357Z,6.70
2018-07-16T18:09:23.245Z,6.23
2018-07-16T18:11:51.568Z,6.23
2018-07-16T18:14:19.833Z,5.80
2018-07-16T18:16:48.120Z,6.30
2018-07-16T18:19:16.384Z,6.33
2018-07-16T18:21:44.733Z,5.70
2018-07-16T18:24:13.010Z,5.93
2018-07-16T18:26:41.289Z,6.13
2018-07-16T18:29:09.541Z,5.73
2018-07-16T18:31:37.852Z,5.97
2018-07-16T18:34:06.707Z,6.00
2018-07-16T18:37:38.125Z,5.03
2018-07-16T18:40:06.413Z,6.10
2018-07-16T18:42:34.754Z,5.30
2018-07-16T18:45:03.033Z,6.13
2018-07-16T18:47:31.390Z,6.47
2018-07-16T18:49:59.665Z,6.57
2018-07-16T18:52:27.984Z,5.50
2018-07-16T18:54:56.273Z,6.20
2018-07-16T18:57:24.561Z,5.53
2018-07-16T18:59:52.833Z,6.40
2018-07-16T19:02:21.132Z,6.37
2018-07-16T19:04:49.400Z,6.60
2018-07-16T19:07:21.849Z,6.43
2018-07-16T19:09:50.889Z,6.20
2018-07-16T19:12:19.781Z,6.23
2018-07-16T19:14:48.165Z,6.30
2018-07-16T19:17:16.465Z,6.40
2018-07-16T19:19:44.794Z,6.17
2018-07-16T19:22:13.105Z,5.97
2018-07-16T19:24:41.425Z,6.57
2018-07-16T19:27:09.720Z,7.00
2018-07-16T19:29:38.070Z,6.30
2018-07-16T19:32:06.371Z,6.42
2018-07-16T19:34:34.666Z,7.50
2018-07-16T19:37:03.198Z,6.77
2018-07-16T19:39:31.492Z,7.57
2018-07-16T19:41:59.753Z,6.83
2018-07-16T19:44:28.209Z,7.90
2018-07-16T19:46:56.469Z,7.53
2018-07-16T19:49:24.766Z,7.70
2018-07-16T19:51:53.117Z,7.77
2018-07-16T19:54:21.413Z,6.70
2018-07-16T19:56:49.676Z,7.20
2018-07-16T19:59:18.068Z,6.87
2018-07-16T20:01:46.353Z,8.30
2018-07-16T20:04:14.633Z,8.07
2018-07-16T20:06:43.920Z,7.80
2018-07-16T20:09:12.229Z,7.20
2018-07-16T20:11:40.522Z,8.20
2018-07-16T20:14:08.818Z,7.37
2018-07-16T20:16:42.287Z,6.70
2018-07-16T20:19:10.950Z,7.13
2018-07-16T20:21:39.281Z,7.20
2018-07-16T20:24:07.674Z,6.80
2018-07-16T20:26:35.960Z,6.40
2018-07-16T20:29:04.249Z,6.93
2018-07-16T20:31:32.590Z,7.43
2018-07-16T20:34:00.869Z,6.87
2018-07-16T20:36:29.161Z,7.63
2018-07-16T20:38:58.698Z,6.23
2018-07-16T20:41:26.985Z,8.10
2018-07-16T20:43:56.417Z,8.20
2018-07-16T20:46:24.889Z,10.33
2018-07-16T20:48:53.204Z,9.37
2018-07-16T20:51:21.594Z,9.10
2018-07-16T20:53:50.082Z,7.60
2018-07-16T20:56:18.395Z,9.27
2018-07-16T20:58:46.657Z,8.10
2018-07-16T21:01:14.962Z,8.97
2018-07-16T21:03:43.271Z,10.20
2018-07-16T21:06:11.561Z,10.60
2018-07-16T21:08:39.888Z,9.07
2018-07-16T21:11:08.230Z,10.40
2018-07-16T21:13:36.517Z,9.67
2018-07-16T21:16:04.816Z,9.57
2018-07-16T21:18:33.111Z,8.80
2018-07-16T21:21:01.381Z,8.47
2018-07-16T21:23:29.676Z,9.00
2018-07-16T21:25:57.957Z,9.40
2018-07-16T21:28:26.262Z,9.00
2018-07-16T21:30:54.670Z,8.63
2018-07-16T21:33:22.977Z,10.30
2018-07-16T21:35:51.237Z,9.57
2018-07-16T21:38:19.520Z,8.73
2018-07-16T21:40:47.868Z,9.37
2018-07-16T21:44:19.441Z,10.53
2018-07-16T21:46:47.707Z,11.55
2018-07-16T21:49:16.012Z,10.67
2018-07-16T21:51:44.282Z,11.60
2018-07-16T21:54:12.597Z,11.50
2018-07-16T21:56:40.885Z,11.17
2018-07-16T21:59:09.223Z,9.53
2018-07-16T22:01:37.559Z,11.47
2018-07-16T22:04:05.877Z,11.10
2018-07-16T22:06:34.162Z,12.47
2018-07-16T22:09:02.489Z,11.77
2018-07-16T22:11:30.809Z,12.50
2018-07-16T22:13:59.590Z,12.00
2018-07-16T22:16:27.861Z,13.20
2018-07-16T22:18:56.166Z,12.60
2018-07-16T22:21:25.485Z,13.37
2018-07-16T22:23:53.774Z,11.00
2018-07-16T22:26:22.106Z,12.57
2018-07-16T22:28:50.365Z,13.17
2018-07-16T22:31:21.674Z,12.30
2018-07-16T22:33:50.024Z,11.70
2018-07-16T22:36:18.509Z,12.17
2018-07-16T22:38:46.986Z,11.80
2018-07-16T22:41:15.495Z,13.17
2018-07-16T22:43:43.803Z,13.40
2018-07-16T22:46:12.095Z,12.33
2018-07-16T22:48:40.522Z,13.23
2018-07-16T22:51:10.145Z,13.90
2018-07-16T22:53:38.420Z,11.70
2018-07-16T22:56:06.754Z,11.30
2018-07-16T22:58:36.092Z,13.50
2018-07-16T23:01:05.500Z,12.23
2018-07-16T23:03:33.781Z,13.40
2018-07-16T23:06:02.102Z,17.80
2018-07-16T23:08:30.385Z,18.33
2018-07-16T23:11:02.360Z,16.60
2018-07-16T23:13:30.774Z,16.03
2018-07-16T23:15:59.037Z,15.00
2018-07-16T23:18:27.386Z,15.20
2018-07-16T23:20:55.784Z,13.37
2018-07-16T23:23:24.088Z,15.43
2018-07-16T23:25:52.537Z,15.87
2018-07-16T23:28:21.876Z,15.70
2018-07-16T23:30:50.163Z,15.43
2018-07-16T23:33:18.490Z,14.83
2018-07-16T23:35:46.860Z,14.67
2018-07-16T23:38:15.185Z,16.20
2018-07-16T23:40:43.609Z,14.50
2018-07-16T23:43:11.909Z,13.97
2018-07-16T23:45:40.191Z,14.23
2018-07-16T23:48:08.501Z,12.80
2018-07-16T23:50:36.777Z,12.70
2018-07-16T23:53:05.096Z,11.93
2018-07-16T23:55:33.368Z,12.20
2018-07-16T23:58:01.798Z,11.77
